AirNav   Pilot Hours Calculator
 
 1182 users online  

64PN Hershey Medical Center Heliport
Hershey, Pennsylvania, USA

GOING TO HERSHEY?


FAA INFORMATION EFFECTIVE 07 NOVEMBER 2019

Location

FAA Identifier: 64PN
Lat/Long: 40-15-54.3900N 076-40-30.5600W
40-15.906500N 076-40.509333W
40.2651083,-76.6751556
(estimated)
Elevation: 465 ft. / 142 m (estimated)
Variation: 10W (1985)
From city: 2 miles SW of HERSHEY, PA
Time zone: UTC -5 (UTC -4 during Daylight Saving Time)
Zip code: 17033

Heliport Operations

Heliport use: Private use, MEDICAL USE.
Activation date: 04/1981
Control tower: no
ARTCC: NEW YORK CENTER
FSS: WILLIAMSPORT FLIGHT SERVICE STATION
NOTAMs facility: FDC (NOTAM-D service not available)
Attendance: CONTINUOUS
Wind indicator: lighted
Segmented circle: no
Lights: FOR PERIMETER LGTS CALL 717-531-7777 OR CTC HOSP - 123.050.
Beacon: CLEAR/RED/YELLOW. FOR ROTG BCN CALL 717-531-7777 OR CTC HOSPITAL ON FREQ 123.050.

Heliport Communications

UNICOM: 123.05
WX ASOS at MDT (6 nm SW): PHONE 717-944-1372
WX ASOS at CXY (9 nm W): PHONE 717-770-0880
WX ASOS at MUI (11 nm NE): 124.175 (717-861-2536)
WX AWOS-2 at 9D4 (17 nm E): 118.45 (717-866-2906)
WX ASOS at LNS (19 nm SE): 125.675 (717-569-8860)

Nearby radio navigation aids

VOR radial/distance  VOR name  Freq  Var
RAVr202/17.6RAVINE VORTAC114.6011W
HARr107/18.2HARRISBURG VORTAC112.5010W
LRPr305/19.6LANCASTER VOR/DME117.3009W
SEGr171/33.0SELINSGROVE VOR/DME110.4008W

 
NDB name  Hdg/Dist  Freq  Var  ID
ENOLA095/10.420411WMD -- -..
BELLGROVE219/11.732810WBZJ -... --.. .---

Heliport Services

Runway Information

Helipad H1

Dimensions: 80 x 80 ft. / 24 x 24 m
FULL SURFACE OF FATO LOAD BEARING, MACADAM AND CONCRETE.
Surface: asphalt
Runway edge lights: PERI
Latitude: 40-15.906500N
Longitude: 076-40.509333W
Elevation: 465.0 ft.
Traffic pattern: leftleft

Heliport Ownership and Management from official FAA records

Ownership: Privately-owned
Owner: THE PA STATE UNIVERSITY
500 UNIVERSITY DR
HERSHEY, PA 17033
Phone 717-531-7365
Manager: DOUG TURK
500 UNIVERSITY DR
HERSHEY, PA 17033
Phone 717-531-8760

Additional Remarks

FOR CD CTC HARRISBURG APCH AT 800-932-0712.

Instrument Procedures

There are no published instrument procedures at 64PN.

Some nearby airports with instrument procedures:

58N - Reigle Field Airport (5 nm E)
KMDT - Harrisburg International Airport (6 nm SW)
KCXY - Capital City Airport (9 nm W)
KMUI - Muir Army Airfield (Fort Indiantown Gap) (11 nm NE)
N71 - Donegal Springs Airpark (11 nm SE)
08N - Keller Brothers Airport (16 nm E)
9D4 - Deck Airport (17 nm E)
74N - Bendigo Airport (18 nm N)
KLNS - Lancaster Airport (19 nm SE)
 
Loc | Ops | Rwys | IFR | FBO | Links
Com | Nav | Svcs | Stats | Notes
Area around 64PN (Hershey Medical Center Heliport)
 
Road maps at: MapQuest Bing Google
 
Aerial photo
No photo
 
Sectional chart

 
Airport distance calculator
Flying to Hershey Medical Center Heliport? Find the distance to fly.

From to 64PN

Sunrise and sunset
Times for 15-Nov-2019
 Local
(UTC-5)
 Zulu
(UTC)
Morning civil twilight06:2411:24
Sunrise06:5311:53
Sunset16:4921:49
Evening civil twilight17:1822:18

Current date and time
Zulu (UTC)  15-Nov-2019 21:22:38
Local (UTC-5)  15-Nov-2019 16:22:38
 
METAR
KMDT 
6nm SW 
152056Z 27005KT 10SM FEW100 BKN250 09/M03 A3017 RMK AO2 SLP220 T00891028 56005
KCXY 
9nm W 
152056Z 26004KT 10SM CLR 11/M04 A3018 RMK AO2 SLP223 T01061039 58003
KMUI 
10nm NE 
152056Z 27005KT 10SM BKN200 09/M07 A3017 RMK AO2A SLP224 T00931070 58001
KLNS 
19nm SE 
152053Z 30005KT 10SM CLR 08/M03 A3017 RMK AO2 SLP220 T00831033 56007
TAF
KMDT 
6nm SW 
151726Z 1518/1618 31006KT P6SM SCT250 FM160000 32005KT P6SM SKC FM161500 02010G15KT P6SM SKC
KMUI 
10nm NE 
151900Z 1519/1701 29012KT 9999 FEW250 QNH3012INS BECMG 1520/1521 34006KT 9999 FEW250 QNH3015INS BECMG 1601/1602 36012KT 9999 BKN020 620202 QNH3021INS BECMG 1613/1614 04012G18KT 9999 FEW020 QNH3023INS BECMG 1620/1622 05009KT 9999 FEW150 QNH3028INS TX12/1522Z TNM04/1613Z LAST NO AMDS AFT 1605 NEXT 1611
KLNS 
19nm SE 
151726Z 1518/1618 26007KT P6SM SCT250 FM160000 32005KT P6SM SKC FM161500 04010G15KT P6SM SKC
NOTAMs
Click for the latest NOTAMs
NOTAMs are issued by the DoD/FAA and will open in a separate window not controlled by AirNav.

 

 
 

Would you like to see your business listed on this page?

 If your business provides an interesting product or service to pilots, flight crews, aircraft, or users of the Hershey Medical Center Heliport, you should consider listing it here.  To start the listing process, click on the button below
 
Add a business
 

Other Pages about Hershey Medical Center Heliport

Update a link
 
Copyright © AirNav, LLC. All rights reserved. Privacy Policy  Contact